createdAt,value
2018-07-21T00:00:10.007Z,10.57
2018-07-21T00:02:37.376Z,10.17
2018-07-21T00:05:04.716Z,9.83
2018-07-21T00:07:32.048Z,10.63
2018-07-21T00:09:59.359Z,11.73
2018-07-21T00:12:28.769Z,9.87
2018-07-21T00:14:56.054Z,11.60
2018-07-21T00:17:23.396Z,10.93
2018-07-21T00:19:50.698Z,12.83
2018-07-21T00:22:18.105Z,9.17
2018-07-21T00:24:45.411Z,11.27
2018-07-21T00:27:12.724Z,12.13
2018-07-21T00:29:40.014Z,9.20
2018-07-21T00:32:07.351Z,10.90
2018-07-21T00:34:34.637Z,9.57
2018-07-21T00:37:01.964Z,9.57
2018-07-21T00:39:29.248Z,9.77
2018-07-21T00:41:56.540Z,10.13
2018-07-21T00:44:23.856Z,10.20
2018-07-21T00:46:51.187Z,11.00
2018-07-21T00:49:18.495Z,12.60
2018-07-21T00:51:45.856Z,10.17
2018-07-21T00:54:15.239Z,12.97
2018-07-21T00:56:42.526Z,10.40
2018-07-21T00:59:09.813Z,10.77
2018-07-21T01:01:37.144Z,10.47
2018-07-21T01:04:04.444Z,9.33
2018-07-21T01:06:31.775Z,9.60
2018-07-21T01:08:59.097Z,9.53
2018-07-21T01:11:26.400Z,9.47
2018-07-21T01:13:53.682Z,8.93
2018-07-21T01:16:20.998Z,10.77
2018-07-21T01:18:48.319Z,9.73
2018-07-21T01:21:15.636Z,10.53
2018-07-21T01:23:42.940Z,11.97
2018-07-21T01:26:10.219Z,10.10
2018-07-21T01:28:37.512Z,8.87
2018-07-21T01:31:04.823Z,10.33
2018-07-21T01:33:32.109Z,11.10
2018-07-21T01:35:59.380Z,8.67
2018-07-21T01:38:26.761Z,12.40
2018-07-21T01:40:54.113Z,10.83
2018-07-21T01:43:21.415Z,13.63
2018-07-21T01:45:48.690Z,9.50
2018-07-21T01:48:16.011Z,10.43
2018-07-21T01:50:43.288Z,8.97
2018-07-21T01:53:10.619Z,11.83
2018-07-21T01:55:37.970Z,10.77
2018-07-21T01:58:05.273Z,8.90
2018-07-21T02:00:32.601Z,12.30
2018-07-21T02:02:59.883Z,9.60
2018-07-21T02:05:27.185Z,10.83
2018-07-21T02:07:54.559Z,10.57
2018-07-21T02:10:21.885Z,10.50
2018-07-21T02:12:49.191Z,11.33
2018-07-21T02:15:16.483Z,11.13
2018-07-21T02:17:43.784Z,13.80
2018-07-21T02:20:11.130Z,9.60
2018-07-21T02:22:38.631Z,11.07
2018-07-21T02:25:06.067Z,11.37
2018-07-21T02:27:33.413Z,11.47
2018-07-21T02:30:00.788Z,12.57
2018-07-21T02:32:28.112Z,10.87
2018-07-21T02:34:55.466Z,10.53
2018-07-21T02:37:22.767Z,10.03
2018-07-21T02:39:50.083Z,9.97
2018-07-21T02:42:17.407Z,11.17
2018-07-21T02:44:44.735Z,9.37
2018-07-21T02:47:12.098Z,9.47
2018-07-21T02:49:39.374Z,12.63
2018-07-21T02:52:06.712Z,9.73
2018-07-21T02:54:34.022Z,10.97
2018-07-21T02:57:01.326Z,10.17
2018-07-21T02:59:28.657Z,10.13
2018-07-21T03:01:55.927Z,10.70
2018-07-21T03:04:23.211Z,11.50
2018-07-21T03:06:50.491Z,9.13
2018-07-21T03:09:18.152Z,10.70
2018-07-21T03:11:45.429Z,8.90
2018-07-21T03:14:12.712Z,9.93
2018-07-21T03:16:40.100Z,10.13
2018-07-21T03:19:07.459Z,10.37
2018-07-21T03:21:34.745Z,9.80
2018-07-21T03:24:02.403Z,10.33
2018-07-21T03:26:29.696Z,9.97
2018-07-21T03:28:57.071Z,10.40
2018-07-21T03:31:24.339Z,9.70
2018-07-21T03:33:51.633Z,12.83
2018-07-21T03:36:18.914Z,10.13
2018-07-21T03:38:46.300Z,11.43
2018-07-21T03:41:13.634Z,9.53
2018-07-21T03:43:41.161Z,11.27
2018-07-21T03:46:08.535Z,9.70
2018-07-21T03:48:35.869Z,8.93
2018-07-21T03:51:03.172Z,10.73
2018-07-21T03:53:30.460Z,10.43
2018-07-21T03:55:57.736Z,11.50
2018-07-21T03:58:25.068Z,10.57
2018-07-21T04:00:52.360Z,11.17
2018-07-21T04:03:20.010Z,10.20
2018-07-21T04:05:47.304Z,10.43
2018-07-21T04:08:14.621Z,10.90
2018-07-21T04:10:41.960Z,9.73
2018-07-21T04:13:10.027Z,9.97
2018-07-21T04:15:37.337Z,10.00
2018-07-21T04:18:04.803Z,13.13
2018-07-21T04:20:32.103Z,10.27
2018-07-21T04:22:59.395Z,9.80
2018-07-21T04:25:26.707Z,10.70
2018-07-21T04:27:54.021Z,11.33
2018-07-21T04:30:21.336Z,11.00
2018-07-21T04:32:49.209Z,12.33
2018-07-21T04:35:16.529Z,10.83
2018-07-21T04:37:43.852Z,10.27
2018-07-21T04:40:11.170Z,9.70
2018-07-21T04:42:39.251Z,10.87
2018-07-21T04:45:06.611Z,12.00
2018-07-21T04:47:33.944Z,10.37
2018-07-21T04:50:01.315Z,11.13
2018-07-21T04:52:33.685Z,10.90
2018-07-21T04:55:01.004Z,10.27
2018-07-21T04:57:28.291Z,11.30
2018-07-21T04:59:55.647Z,14.43
2018-07-21T05:02:22.961Z,13.00
2018-07-21T05:04:50.355Z,16.93
2018-07-21T05:07:17.688Z,10.67
2018-07-21T05:09:45.087Z,11.53
2018-07-21T05:12:12.384Z,11.17
2018-07-21T05:14:39.708Z,10.10
2018-07-21T05:17:07.013Z,9.97
2018-07-21T05:19:34.348Z,9.43
2018-07-21T05:22:01.657Z,9.40
2018-07-21T05:24:28.977Z,10.40
2018-07-21T05:26:56.295Z,11.83
2018-07-21T05:29:23.608Z,10.60
2018-07-21T05:31:50.915Z,10.57
2018-07-21T05:34:18.232Z,9.17
2018-07-21T05:36:45.567Z,8.93
2018-07-21T05:39:12.955Z,10.40
2018-07-21T05:41:40.977Z,11.63
2018-07-21T05:44:08.312Z,11.03
2018-07-21T05:46:36.108Z,12.00
2018-07-21T05:49:03.462Z,9.73
2018-07-21T05:51:30.751Z,9.33
2018-07-21T05:53:58.071Z,10.27
2018-07-21T05:56:25.444Z,10.97
2018-07-21T05:58:52.799Z,10.77
2018-07-21T06:01:20.132Z,12.43
2018-07-21T06:03:47.764Z,13.63
2018-07-21T06:06:15.731Z,10.40
2018-07-21T06:08:43.087Z,9.83
2018-07-21T06:11:10.496Z,13.40
2018-07-21T06:13:37.751Z,10.27
2018-07-21T06:16:05.248Z,10.73
2018-07-21T06:18:32.608Z,10.30
2018-07-21T06:20:59.921Z,11.50
2018-07-21T06:23:27.263Z,13.17
2018-07-21T06:25:54.912Z,12.73
2018-07-21T06:28:22.369Z,11.40
2018-07-21T06:30:49.860Z,11.80
2018-07-21T06:33:17.165Z,10.63
2018-07-21T06:35:44.458Z,11.63
2018-07-21T06:38:11.906Z,10.63
2018-07-21T06:40:39.237Z,12.17
2018-07-21T06:43:06.593Z,9.80
2018-07-21T06:45:33.905Z,10.03
2018-07-21T06:48:01.589Z,14.63
2018-07-21T06:50:28.968Z,8.63
2018-07-21T06:52:56.440Z,11.67
2018-07-21T06:55:23.750Z,12.23
2018-07-21T06:57:51.090Z,11.60
2018-07-21T07:00:18.403Z,14.60
2018-07-21T07:02:45.736Z,12.43
2018-07-21T07:05:13.064Z,10.70
2018-07-21T07:07:40.348Z,11.60
2018-07-21T07:10:08.246Z,12.00
2018-07-21T07:12:35.649Z,11.60
2018-07-21T07:15:03.008Z,10.30
2018-07-21T07:17:30.323Z,11.00
2018-07-21T07:19:57.627Z,10.77
2018-07-21T07:22:24.905Z,11.30
2018-07-21T07:24:52.289Z,12.93
2018-07-21T07:27:19.628Z,11.07
2018-07-21T07:29:46.913Z,11.20
2018-07-21T07:32:14.241Z,10.33
2018-07-21T07:34:41.576Z,10.13
2018-07-21T07:37:08.927Z,11.30
2018-07-21T07:39:36.196Z,10.47
2018-07-21T07:42:03.591Z,11.23
2018-07-21T07:44:30.865Z,9.90
2018-07-21T07:46:58.261Z,9.30
2018-07-21T07:49:25.577Z,9.73
2018-07-21T07:51:52.918Z,9.93
2018-07-21T07:54:20.284Z,9.50
2018-07-21T07:56:47.662Z,11.10
2018-07-21T07:59:14.979Z,13.70
2018-07-21T08:01:42.384Z,10.87
2018-07-21T08:04:09.683Z,13.67
2018-07-21T08:06:37.045Z,11.17
2018-07-21T08:09:05.772Z,10.10
2018-07-21T08:11:33.075Z,11.97
2018-07-21T08:14:00.421Z,12.00
2018-07-21T08:16:28.100Z,12.97
2018-07-21T08:18:55.603Z,13.30
2018-07-21T08:21:22.985Z,11.33
2018-07-21T08:23:50.292Z,11.13
2018-07-21T08:26:17.626Z,11.80
2018-07-21T08:28:44.955Z,16.30
2018-07-21T08:31:12.312Z,11.57
2018-07-21T08:33:39.628Z,11.67
2018-07-21T08:36:07.412Z,12.10
2018-07-21T08:38:34.715Z,14.17
2018-07-21T08:41:02.049Z,12.80
2018-07-21T08:43:29.408Z,15.13
2018-07-21T08:45:56.735Z,15.37
2018-07-21T08:48:24.040Z,11.90
2018-07-21T08:50:51.344Z,14.50
2018-07-21T08:53:18.657Z,14.03
2018-07-21T08:55:46.005Z,13.33
2018-07-21T08:58:13.328Z,16.83
2018-07-21T09:00:40.650Z,14.10
2018-07-21T09:03:07.936Z,11.83
2018-07-21T09:05:35.354Z,16.07
2018-07-21T09:08:02.684Z,16.67
2018-07-21T09:10:29.965Z,13.17
2018-07-21T09:12:57.326Z,12.93
2018-07-21T09:15:25.416Z,13.70
2018-07-21T09:17:52.714Z,13.20
2018-07-21T09:20:20.005Z,13.93
2018-07-21T09:22:47.300Z,13.03
2018-07-21T09:25:14.608Z,12.03
2018-07-21T09:27:41.905Z,14.57
2018-07-21T09:30:09.188Z,13.83
2018-07-21T09:32:36.537Z,11.40
2018-07-21T09:35:03.905Z,11.60
2018-07-21T09:37:31.201Z,13.07
2018-07-21T09:39:58.536Z,13.73
2018-07-21T09:42:25.833Z,11.00
2018-07-21T09:44:53.136Z,13.43
2018-07-21T09:47:20.440Z,17.00
2018-07-21T09:49:47.759Z,13.80
2018-07-21T09:52:15.097Z,13.77
2018-07-21T09:54:42.371Z,13.20
2018-07-21T09:57:10.077Z,11.97
2018-07-21T09:59:37.402Z,10.73
2018-07-21T10:02:04.736Z,11.63
2018-07-21T10:04:32.035Z,15.33
2018-07-21T10:06:59.375Z,11.80
2018-07-21T10:09:26.662Z,13.50
2018-07-21T10:11:53.976Z,12.30
2018-07-21T10:14:22.095Z,12.80
2018-07-21T10:16:49.451Z,10.37
2018-07-21T10:19:16.770Z,14.30
2018-07-21T10:21:44.083Z,15.73
2018-07-21T10:24:16.833Z,10.93
2018-07-21T10:26:49.571Z,10.30
2018-07-21T10:29:16.874Z,16.37
2018-07-21T10:31:44.451Z,10.47
2018-07-21T10:34:12.159Z,9.20
2018-07-21T10:36:40.581Z,10.57
2018-07-21T10:39:09.360Z,13.10
2018-07-21T10:41:36.664Z,10.60
2018-07-21T10:44:04.005Z,11.27
2018-07-21T10:46:31.305Z,11.87
2018-07-21T10:48:58.620Z,10.77
2018-07-21T10:51:26.231Z,13.67
2018-07-21T10:53:53.548Z,10.07
2018-07-21T10:56:21.677Z,11.47
2018-07-21T10:58:49.075Z,10.50
2018-07-21T11:01:16.395Z,10.67
2018-07-21T11:03:43.735Z,11.63
2018-07-21T11:06:11.088Z,10.43
2018-07-21T11:08:38.517Z,11.73
2018-07-21T11:11:05.920Z,11.40
2018-07-21T11:13:33.387Z,10.57
2018-07-21T11:16:00.688Z,11.17
2018-07-21T11:18:27.983Z,9.67
2018-07-21T11:20:55.533Z,13.60
2018-07-21T11:23:22.856Z,10.50
2018-07-21T11:25:50.125Z,9.57
2018-07-21T11:28:17.459Z,10.43
2018-07-21T11:30:44.820Z,11.00
2018-07-21T11:33:12.132Z,11.67
2018-07-21T11:35:40.227Z,12.03
2018-07-21T11:38:07.446Z,10.73
2018-07-21T11:40:34.756Z,10.13
2018-07-21T11:43:02.087Z,9.70
2018-07-21T11:45:29.508Z,11.22
2018-07-21T11:47:57.650Z,10.60
2018-07-21T11:50:24.959Z,9.73
2018-07-21T11:52:52.264Z,10.23
2018-07-21T11:55:19.576Z,9.25
2018-07-21T11:57:47.004Z,9.88
2018-07-21T12:00:14.319Z,10.68
2018-07-21T12:02:41.681Z,10.55
2018-07-21T12:05:09.227Z,10.88
2018-07-21T12:07:37.040Z,9.23
2018-07-21T12:10:04.687Z,8.45
2018-07-21T12:12:32.948Z,9.05
2018-07-21T12:15:00.276Z,9.18
2018-07-21T12:17:27.622Z,9.33
2018-07-21T12:19:55.910Z,9.70
2018-07-21T12:22:23.220Z,8.38
2018-07-21T12:24:50.606Z,10.82
2018-07-21T12:27:17.952Z,10.72
2018-07-21T12:29:46.412Z,8.08
2018-07-21T12:32:13.808Z,9.38
2018-07-21T12:34:41.101Z,8.75
2018-07-21T12:37:08.456Z,10.38
2018-07-21T12:39:36.245Z,10.10
2018-07-21T12:42:03.801Z,9.68
2018-07-21T12:44:31.101Z,8.20
2018-07-21T12:46:59.424Z,9.28
2018-07-21T12:49:26.864Z,8.40
2018-07-21T12:51:54.253Z,9.68
2018-07-21T12:54:22.497Z,8.90
2018-07-21T12:56:49.814Z,9.95
2018-07-21T12:59:17.132Z,9.75
2018-07-21T13:01:44.443Z,9.65
2018-07-21T13:04:12.402Z,9.73
2018-07-21T13:06:39.720Z,9.40
2018-07-21T13:09:08.071Z,10.48
2018-07-21T13:11:35.374Z,11.22
2018-07-21T13:14:02.673Z,8.35
2018-07-21T13:16:29.996Z,7.62
2018-07-21T13:18:57.344Z,10.28
2018-07-21T13:21:24.613Z,10.13
2018-07-21T13:23:51.933Z,8.93
2018-07-21T13:26:19.196Z,8.83
2018-07-21T13:28:46.584Z,7.80
2018-07-21T13:31:13.935Z,7.53
2018-07-21T13:33:41.286Z,11.03
2018-07-21T13:36:08.569Z,7.92
2018-07-21T13:38:35.874Z,10.95
2018-07-21T13:41:03.216Z,10.48
2018-07-21T13:43:30.633Z,10.13
2018-07-21T13:45:58.011Z,11.78
2018-07-21T13:48:25.302Z,10.98
2018-07-21T13:50:52.644Z,10.00
2018-07-21T13:53:19.909Z,12.47
2018-07-21T13:55:47.233Z,12.80
2018-07-21T13:58:14.522Z,8.30
2018-07-21T14:00:41.867Z,10.20
2018-07-21T14:03:09.714Z,10.38
2018-07-21T14:05:37.036Z,8.50
2018-07-21T14:08:04.369Z,9.93
2018-07-21T14:10:32.328Z,12.68
2018-07-21T14:12:59.796Z,10.13
2018-07-21T14:15:27.152Z,9.08
2018-07-21T14:17:54.652Z,9.98
2018-07-21T14:20:22.096Z,9.05
2018-07-21T14:22:49.489Z,11.53
2018-07-21T14:25:16.942Z,10.53
2018-07-21T14:27:44.283Z,10.88
2018-07-21T14:30:11.626Z,11.17
2018-07-21T14:32:39.024Z,10.23
2018-07-21T14:35:06.789Z,11.63
2018-07-21T14:37:34.101Z,9.78
2018-07-21T14:40:01.487Z,8.60
2018-07-21T14:42:28.815Z,9.07
2018-07-21T14:44:56.154Z,8.43
2018-07-21T14:47:23.449Z,11.40
2018-07-21T14:49:50.762Z,7.53
2018-07-21T14:52:18.051Z,9.70
2018-07-21T14:54:45.369Z,7.37
2018-07-21T14:57:12.762Z,8.00
2018-07-21T14:59:40.101Z,10.63
2018-07-21T15:02:08.053Z,8.33
2018-07-21T15:04:35.795Z,8.77
2018-07-21T15:07:03.994Z,7.97
2018-07-21T15:09:31.325Z,7.27
2018-07-21T15:11:58.733Z,8.20
2018-07-21T15:14:26.686Z,6.97
2018-07-21T15:16:54.252Z,9.60
2018-07-21T15:19:21.714Z,11.07
2018-07-21T15:21:49.472Z,7.70
2018-07-21T15:24:17.063Z,7.97
2018-07-21T15:26:44.382Z,7.70
2018-07-21T15:29:11.651Z,8.50
2018-07-21T15:31:39.027Z,13.07
2018-07-21T15:34:06.348Z,11.37
2018-07-21T15:36:33.695Z,10.60
2018-07-21T15:39:01.171Z,12.63
2018-07-21T15:41:28.555Z,11.40
2018-07-21T15:43:55.815Z,10.20
2018-07-21T15:46:23.236Z,12.30
2018-07-21T15:48:50.529Z,13.40
2018-07-21T15:51:18.131Z,10.37
2018-07-21T15:53:45.426Z,9.47
2018-07-21T15:56:12.761Z,10.40
2018-07-21T15:58:40.096Z,11.47
2018-07-21T16:01:07.488Z,11.50
2018-07-21T16:03:34.796Z,11.67
2018-07-21T16:06:02.107Z,14.07
2018-07-21T16:08:29.438Z,13.67
2018-07-21T16:10:56.791Z,12.07
2018-07-21T16:13:24.120Z,13.83
2018-07-21T16:15:51.496Z,12.33
2018-07-21T16:18:18.803Z,13.67
2018-07-21T16:20:46.140Z,15.13
2018-07-21T16:23:13.464Z,14.83
2018-07-21T16:25:40.772Z,16.10
2018-07-21T16:28:08.111Z,17.53
2018-07-21T16:30:35.442Z,17.10
2018-07-21T16:33:02.758Z,17.10
2018-07-21T16:35:30.077Z,15.53
2018-07-21T16:37:57.444Z,15.00
2018-07-21T16:40:24.755Z,15.50
2018-07-21T16:42:52.109Z,16.37
2018-07-21T16:45:19.558Z,16.80
2018-07-21T16:47:46.892Z,17.03
2018-07-21T16:50:14.253Z,16.37
2018-07-21T16:52:41.564Z,17.03
2018-07-21T16:55:08.884Z,17.50
2018-07-21T16:57:36.213Z,16.50
2018-07-21T17:00:04.090Z,16.87
2018-07-21T17:02:31.408Z,17.50
2018-07-21T17:04:58.809Z,15.10
2018-07-21T17:07:26.208Z,15.67
2018-07-21T17:09:53.636Z,15.70
2018-07-21T17:12:20.989Z,15.03
2018-07-21T17:14:48.336Z,13.90
2018-07-21T17:17:15.943Z,13.13
2018-07-21T17:19:43.227Z,13.60
2018-07-21T17:22:10.523Z,14.13
2018-07-21T17:24:37.847Z,15.23
2018-07-21T17:27:06.169Z,13.80
2018-07-21T17:29:33.560Z,13.67
2018-07-21T17:32:00.953Z,14.17
2018-07-21T17:34:28.304Z,14.37
2018-07-21T17:36:55.700Z,13.03
2018-07-21T17:39:23.143Z,13.60
2018-07-21T17:41:50.601Z,14.13
2018-07-21T17:44:17.991Z,14.97
2018-07-21T17:46:45.340Z,14.77
2018-07-21T17:49:12.624Z,14.50
2018-07-21T17:51:40.064Z,13.20
2018-07-21T17:54:07.436Z,13.67
2018-07-21T17:56:34.821Z,11.70
2018-07-21T17:59:02.148Z,12.47
2018-07-21T18:01:29.602Z,13.40
2018-07-21T18:03:56.936Z,13.30
2018-07-21T18:06:24.260Z,14.83
2018-07-21T18:08:51.592Z,13.70
2018-07-21T18:11:19.012Z,12.67
2018-07-21T18:13:46.380Z,12.40
2018-07-21T18:16:13.773Z,13.57
2018-07-21T18:18:41.112Z,13.93
2018-07-21T18:21:08.528Z,12.00
2018-07-21T18:23:35.911Z,13.97
2018-07-21T18:26:03.552Z,13.63
2018-07-21T18:28:31.000Z,13.03
2018-07-21T18:30:58.377Z,12.90
2018-07-21T18:33:25.776Z,14.10
2018-07-21T18:35:53.188Z,14.43
2018-07-21T18:38:20.550Z,13.77
2018-07-21T18:40:47.872Z,15.30
2018-07-21T18:43:15.260Z,15.57
2018-07-21T18:45:42.600Z,15.27
2018-07-21T18:48:09.941Z,13.53
2018-07-21T18:50:37.360Z,16.37
2018-07-21T18:53:04.893Z,13.93
2018-07-21T18:55:32.283Z,13.83
2018-07-21T18:57:59.636Z,13.27
2018-07-21T19:00:27.029Z,13.87
2018-07-21T19:02:54.420Z,12.73
2018-07-21T19:05:21.762Z,12.83
2018-07-21T19:07:49.137Z,12.27
2018-07-21T19:10:16.529Z,12.57
2018-07-21T19:12:48.388Z,10.93
2018-07-21T19:16:19.657Z,7.97
2018-07-21T19:18:47.042Z,9.77
2018-07-21T19:21:19.663Z,9.70
2018-07-21T19:23:48.214Z,9.00
2018-07-21T19:26:20.885Z,11.43
2018-07-21T19:28:48.377Z,7.97
2018-07-21T19:31:15.796Z,7.90
2018-07-21T19:33:43.197Z,8.03
2018-07-21T19:36:16.700Z,7.90
2018-07-21T19:38:44.068Z,7.83
2018-07-21T19:41:16.840Z,7.97
2018-07-21T19:43:44.184Z,8.47
2018-07-21T19:46:11.876Z,7.17
2018-07-21T19:48:40.336Z,6.70
2018-07-21T19:51:07.806Z,7.17
2018-07-21T19:53:35.196Z,6.60
2018-07-21T19:56:03.122Z,6.37
2018-07-21T19:58:30.476Z,7.60
2018-07-21T20:00:57.994Z,5.77
2018-07-21T20:03:25.664Z,6.77
2018-07-21T20:05:53.024Z,6.50
2018-07-21T20:08:20.431Z,5.97
2018-07-21T20:10:47.739Z,6.20
2018-07-21T20:13:15.057Z,7.30
2018-07-21T20:15:42.423Z,7.47
2018-07-21T20:18:11.075Z,6.40
2018-07-21T20:20:38.381Z,6.43
2018-07-21T20:23:05.783Z,6.90
2018-07-21T20:25:33.109Z,6.97
2018-07-21T20:28:00.421Z,8.30
2018-07-21T20:30:27.746Z,6.93
2018-07-21T20:32:55.059Z,7.50
2018-07-21T20:35:22.580Z,8.63
2018-07-21T20:37:49.933Z,7.30
2018-07-21T20:40:17.234Z,8.00
2018-07-21T20:42:44.552Z,8.90
2018-07-21T20:45:11.864Z,8.10
2018-07-21T20:47:39.213Z,9.17
2018-07-21T20:50:06.532Z,8.43
2018-07-21T20:52:33.824Z,8.87
2018-07-21T20:55:01.192Z,8.90
2018-07-21T20:57:28.487Z,9.20
2018-07-21T20:59:55.866Z,9.47
2018-07-21T21:02:23.174Z,9.87
2018-07-21T21:04:50.492Z,10.43
2018-07-21T21:07:17.783Z,9.87
2018-07-21T21:09:45.100Z,10.77
2018-07-21T21:12:12.404Z,10.57
2018-07-21T21:14:39.765Z,10.73
2018-07-21T21:17:07.058Z,10.10
2018-07-21T21:19:34.525Z,9.80
2018-07-21T21:22:01.808Z,10.67
2018-07-21T21:24:29.155Z,11.73
2018-07-21T21:26:56.448Z,11.10
2018-07-21T21:29:23.793Z,12.73
2018-07-21T21:31:51.071Z,12.33
2018-07-21T21:34:18.427Z,12.50
2018-07-21T21:36:45.736Z,12.13
2018-07-21T21:39:13.687Z,13.17
2018-07-21T21:41:41.612Z,12.93
2018-07-21T21:44:08.923Z,15.13
2018-07-21T21:46:36.220Z,14.50
2018-07-21T21:49:03.567Z,15.57
2018-07-21T21:51:30.883Z,14.97
2018-07-21T21:53:58.204Z,16.10
2018-07-21T21:56:25.638Z,15.17
2018-07-21T21:58:53.036Z,15.87
2018-07-21T22:01:20.305Z,15.30
2018-07-21T22:03:47.612Z,15.03
2018-07-21T22:06:14.911Z,14.93
2018-07-21T22:08:42.305Z,15.57
2018-07-21T22:11:09.608Z,16.27
2018-07-21T22:13:36.952Z,16.03
2018-07-21T22:16:04.255Z,15.57
2018-07-21T22:18:31.773Z,17.63
2018-07-21T22:20:59.072Z,13.97
2018-07-21T22:23:26.429Z,14.87
2018-07-21T22:25:53.732Z,14.83
2018-07-21T22:28:21.036Z,15.07
2018-07-21T22:30:48.382Z,14.43
2018-07-21T22:33:15.803Z,16.67
2018-07-21T22:35:43.158Z,14.57
2018-07-21T22:38:10.468Z,15.40
2018-07-21T22:40:37.781Z,15.27
2018-07-21T22:43:05.154Z,14.37
2018-07-21T22:45:32.471Z,14.80
2018-07-21T22:47:59.776Z,14.70
2018-07-21T22:50:27.101Z,15.73
2018-07-21T22:52:54.598Z,14.10
2018-07-21T22:55:21.960Z,16.17
2018-07-21T22:57:49.268Z,13.60
2018-07-21T23:00:16.614Z,14.33
2018-07-21T23:02:43.904Z,17.30
2018-07-21T23:05:11.796Z,15.23
2018-07-21T23:07:39.228Z,16.87
2018-07-21T23:10:06.985Z,15.73
2018-07-21T23:12:34.531Z,16.20
2018-07-21T23:15:01.850Z,15.00
2018-07-21T23:17:29.127Z,14.40
2018-07-21T23:19:56.427Z,14.83
2018-07-21T23:22:23.710Z,13.93
2018-07-21T23:24:51.052Z,15.33
2018-07-21T23:27:18.359Z,10.43
2018-07-21T23:29:45.726Z,9.20
2018-07-21T23:32:13.044Z,10.23
2018-07-21T23:34:40.335Z,7.90
2018-07-21T23:37:07.624Z,7.77
2018-07-21T23:39:34.901Z,7.70
2018-07-21T23:42:03.013Z,6.97
2018-07-21T23:44:30.317Z,10.70
2018-07-21T23:46:57.580Z,8.90
2018-07-21T23:49:24.921Z,10.20
2018-07-21T23:51:52.244Z,10.40
2018-07-21T23:54:19.570Z,14.00
2018-07-21T23:56:46.864Z,9.10
2018-07-21T23:59:14.209Z,10.70
